sensor_id;sensor_type;location;lat;lon;timestamp;P1;durP1;ratioP1;P2;durP2;ratioP2
37339;SDS011;23223;51.006;7.610;2023-10-08T00:01:34;10.27;;;5.28;;
37339;SDS011;23223;51.006;7.610;2023-10-08T00:04:00;13.02;;;5.55;;
37339;SDS011;23223;51.006;7.610;2023-10-08T00:06:29;7.97;;;4.82;;
37339;SDS011;23223;51.006;7.610;2023-10-08T00:08:55;5.68;;;4.20;;
37339;SDS011;23223;51.006;7.610;2023-10-08T00:11:25;9.10;;;6.03;;
37339;SDS011;23223;51.006;7.610;2023-10-08T00:13:51;13.10;;;4.78;;
37339;SDS011;23223;51.006;7.610;2023-10-08T00:16:21;12.27;;;5.00;;
37339;SDS011;23223;51.006;7.610;2023-10-08T00:18:47;9.13;;;4.70;;
37339;SDS011;23223;51.006;7.610;2023-10-08T00:21:19;4.68;;;3.92;;
37339;SDS011;23223;51.006;7.610;2023-10-08T00:23:51;8.77;;;4.32;;
37339;SDS011;23223;51.006;7.610;2023-10-08T00:26:22;11.45;;;4.47;;
37339;SDS011;23223;51.006;7.610;2023-10-08T00:29:02;13.90;;;5.10;;
37339;SDS011;23223;51.006;7.610;2023-10-08T00:31:46;8.90;;;4.35;;
37339;SDS011;23223;51.006;7.610;2023-10-08T00:34:15;12.07;;;5.00;;
37339;SDS011;23223;51.006;7.610;2023-10-08T00:36:43;8.95;;;4.72;;
37339;SDS011;23223;51.006;7.610;2023-10-08T00:39:11;9.88;;;4.57;;
37339;SDS011;23223;51.006;7.610;2023-10-08T00:41:44;9.10;;;4.93;;
37339;SDS011;23223;51.006;7.610;2023-10-08T00:44:11;8.05;;;3.92;;
37339;SDS011;23223;51.006;7.610;2023-10-08T00:46:40;10.70;;;5.22;;
37339;SDS011;23223;51.006;7.610;2023-10-08T00:49:12;8.25;;;4.50;;
37339;SDS011;23223;51.006;7.610;2023-10-08T00:52:01;7.85;;;4.10;;
37339;SDS011;23223;51.006;7.610;2023-10-08T00:54:35;13.15;;;4.25;;
37339;SDS011;23223;51.006;7.610;2023-10-08T00:57:22;12.95;;;4.65;;
37339;SDS011;23223;51.006;7.610;2023-10-08T00:59:54;10.45;;;4.78;;
37339;SDS011;23223;51.006;7.610;2023-10-08T01:02:30;8.40;;;4.22;;
37339;SDS011;23223;51.006;7.610;2023-10-08T01:05:14;7.85;;;3.97;;
37339;SDS011;23223;51.006;7.610;2023-10-08T01:07:50;9.20;;;5.20;;
37339;SDS011;23223;51.006;7.610;2023-10-08T01:10:16;9.48;;;4.57;;
37339;SDS011;23223;51.006;7.610;2023-10-08T01:12:45;9.35;;;4.60;;
37339;SDS011;23223;51.006;7.610;2023-10-08T01:15:26;7.68;;;4.68;;
37339;SDS011;23223;51.006;7.610;2023-10-08T01:17:55;12.43;;;4.72;;
37339;SDS011;23223;51.006;7.610;2023-10-08T01:20:40;10.60;;;5.03;;
37339;SDS011;23223;51.006;7.610;2023-10-08T01:23:12;6.53;;;4.15;;
37339;SDS011;23223;51.006;7.610;2023-10-08T01:25:45;7.20;;;4.47;;
37339;SDS011;23223;51.006;7.610;2023-10-08T01:28:17;9.00;;;4.63;;
37339;SDS011;23223;51.006;7.610;2023-10-08T01:30:54;8.52;;;4.78;;
37339;SDS011;23223;51.006;7.610;2023-10-08T01:33:21;6.43;;;4.10;;
37339;SDS011;23223;51.006;7.610;2023-10-08T01:35:47;10.27;;;4.25;;
37339;SDS011;23223;51.006;7.610;2023-10-08T01:38:16;5.20;;;3.53;;
37339;SDS011;23223;51.006;7.610;2023-10-08T01:40:48;7.55;;;4.00;;
37339;SDS011;23223;51.006;7.610;2023-10-08T01:43:15;6.78;;;3.38;;
37339;SDS011;23223;51.006;7.610;2023-10-08T01:45:42;8.20;;;4.57;;
37339;SDS011;23223;51.006;7.610;2023-10-08T01:48:12;13.07;;;4.95;;
37339;SDS011;23223;51.006;7.610;2023-10-08T01:50:38;8.10;;;4.40;;
37339;SDS011;23223;51.006;7.610;2023-10-08T01:53:04;14.77;;;5.00;;
37339;SDS011;23223;51.006;7.610;2023-10-08T01:55:33;9.20;;;5.03;;
37339;SDS011;23223;51.006;7.610;2023-10-08T01:58:12;10.63;;;4.22;;
37339;SDS011;23223;51.006;7.610;2023-10-08T02:00:41;9.68;;;5.50;;
37339;SDS011;23223;51.006;7.610;2023-10-08T02:03:10;4.20;;;3.28;;
37339;SDS011;23223;51.006;7.610;2023-10-08T02:05:37;13.50;;;4.78;;
37339;SDS011;23223;51.006;7.610;2023-10-08T02:08:04;12.73;;;4.90;;
37339;SDS011;23223;51.006;7.610;2023-10-08T02:10:31;10.05;;;4.82;;
37339;SDS011;23223;51.006;7.610;2023-10-08T02:12:58;7.00;;;4.78;;
37339;SDS011;23223;51.006;7.610;2023-10-08T02:15:24;6.68;;;4.32;;
37339;SDS011;23223;51.006;7.610;2023-10-08T02:17:51;6.45;;;4.45;;
37339;SDS011;23223;51.006;7.610;2023-10-08T02:20:17;6.63;;;4.22;;
37339;SDS011;23223;51.006;7.610;2023-10-08T02:22:44;6.95;;;3.53;;
37339;SDS011;23223;51.006;7.610;2023-10-08T02:25:10;6.85;;;3.50;;
37339;SDS011;23223;51.006;7.610;2023-10-08T02:27:36;12.57;;;4.47;;
37339;SDS011;23223;51.006;7.610;2023-10-08T02:30:03;7.95;;;4.03;;
37339;SDS011;23223;51.006;7.610;2023-10-08T02:32:31;13.70;;;4.80;;
37339;SDS011;23223;51.006;7.610;2023-10-08T02:34:57;6.15;;;3.83;;
37339;SDS011;23223;51.006;7.610;2023-10-08T02:37:23;13.82;;;4.10;;
37339;SDS011;23223;51.006;7.610;2023-10-08T02:39:49;9.77;;;4.68;;
37339;SDS011;23223;51.006;7.610;2023-10-08T02:42:15;10.10;;;3.40;;
37339;SDS011;23223;51.006;7.610;2023-10-08T02:44:41;9.02;;;3.95;;
37339;SDS011;23223;51.006;7.610;2023-10-08T02:47:10;9.68;;;4.13;;
37339;SDS011;23223;51.006;7.610;2023-10-08T02:49:45;9.00;;;3.72;;
37339;SDS011;23223;51.006;7.610;2023-10-08T02:52:13;8.63;;;4.57;;
37339;SDS011;23223;51.006;7.610;2023-10-08T02:54:40;8.90;;;4.18;;
37339;SDS011;23223;51.006;7.610;2023-10-08T02:57:06;7.22;;;4.22;;
37339;SDS011;23223;51.006;7.610;2023-10-08T02:59:39;9.77;;;3.95;;
37339;SDS011;23223;51.006;7.610;2023-10-08T03:02:12;9.25;;;4.15;;
37339;SDS011;23223;51.006;7.610;2023-10-08T03:04:46;10.88;;;4.60;;
37339;SDS011;23223;51.006;7.610;2023-10-08T03:07:18;7.47;;;4.47;;
37339;SDS011;23223;51.006;7.610;2023-10-08T03:09:47;5.90;;;3.42;;
37339;SDS011;23223;51.006;7.610;2023-10-08T03:12:15;7.10;;;4.35;;
37339;SDS011;23223;51.006;7.610;2023-10-08T03:14:42;12.88;;;3.97;;
37339;SDS011;23223;51.006;7.610;2023-10-08T03:17:37;8.07;;;4.50;;
37339;SDS011;23223;51.006;7.610;2023-10-08T03:20:14;9.15;;;4.38;;
37339;SDS011;23223;51.006;7.610;2023-10-08T03:22:59;7.15;;;4.30;;
37339;SDS011;23223;51.006;7.610;2023-10-08T03:25:24;12.32;;;3.88;;
37339;SDS011;23223;51.006;7.610;2023-10-08T03:27:51;11.20;;;5.45;;
37339;SDS011;23223;51.006;7.610;2023-10-08T03:30:19;11.27;;;5.28;;
37339;SDS011;23223;51.006;7.610;2023-10-08T03:32:45;11.65;;;7.28;;
37339;SDS011;23223;51.006;7.610;2023-10-08T03:35:15;11.88;;;4.30;;
37339;SDS011;23223;51.006;7.610;2023-10-08T03:37:42;16.02;;;5.13;;
37339;SDS011;23223;51.006;7.610;2023-10-08T03:40:15;8.02;;;4.28;;
37339;SDS011;23223;51.006;7.610;2023-10-08T03:43:08;11.25;;;4.32;;
37339;SDS011;23223;51.006;7.610;2023-10-08T03:45:54;4.93;;;3.00;;
37339;SDS011;23223;51.006;7.610;2023-10-08T03:48:24;10.93;;;4.43;;
37339;SDS011;23223;51.006;7.610;2023-10-08T03:50:50;7.88;;;4.60;;
37339;SDS011;23223;51.006;7.610;2023-10-08T03:53:31;10.95;;;4.25;;
37339;SDS011;23223;51.006;7.610;2023-10-08T03:56:02;9.40;;;4.10;;
37339;SDS011;23223;51.006;7.610;2023-10-08T03:58:30;6.40;;;3.10;;
37339;SDS011;23223;51.006;7.610;2023-10-08T04:00:59;7.57;;;4.00;;
37339;SDS011;23223;51.006;7.610;2023-10-08T04:03:36;5.93;;;3.80;;
37339;SDS011;23223;51.006;7.610;2023-10-08T04:06:19;14.07;;;4.55;;
37339;SDS011;23223;51.006;7.610;2023-10-08T04:08:53;8.40;;;3.88;;
37339;SDS011;23223;51.006;7.610;2023-10-08T04:11:38;11.80;;;4.82;;
37339;SDS011;23223;51.006;7.610;2023-10-08T04:14:16;7.30;;;4.10;;
37339;SDS011;23223;51.006;7.610;2023-10-08T04:16:42;6.18;;;4.10;;
37339;SDS011;23223;51.006;7.610;2023-10-08T04:19:09;17.45;;;5.05;;
37339;SDS011;23223;51.006;7.610;2023-10-08T04:21:35;10.07;;;3.78;;
37339;SDS011;23223;51.006;7.610;2023-10-08T04:24:01;6.18;;;3.72;;
37339;SDS011;23223;51.006;7.610;2023-10-08T04:26:33;10.32;;;4.55;;
37339;SDS011;23223;51.006;7.610;2023-10-08T04:29:00;8.50;;;3.60;;
37339;SDS011;23223;51.006;7.610;2023-10-08T04:31:31;7.28;;;4.45;;
37339;SDS011;23223;51.006;7.610;2023-10-08T04:34:09;11.02;;;4.45;;
37339;SDS011;23223;51.006;7.610;2023-10-08T04:36:47;9.07;;;4.78;;
37339;SDS011;23223;51.006;7.610;2023-10-08T04:39:19;12.15;;;3.88;;
37339;SDS011;23223;51.006;7.610;2023-10-08T04:41:56;4.50;;;3.22;;
37339;SDS011;23223;51.006;7.610;2023-10-08T04:44:24;12.55;;;4.63;;
37339;SDS011;23223;51.006;7.610;2023-10-08T04:46:51;13.82;;;4.80;;
37339;SDS011;23223;51.006;7.610;2023-10-08T04:49:18;10.40;;;4.82;;
37339;SDS011;23223;51.006;7.610;2023-10-08T04:52:00;8.02;;;4.35;;
37339;SDS011;23223;51.006;7.610;2023-10-08T04:54:34;7.43;;;5.07;;
37339;SDS011;23223;51.006;7.610;2023-10-08T04:57:05;6.60;;;3.65;;
37339;SDS011;23223;51.006;7.610;2023-10-08T04:59:32;11.35;;;4.82;;
37339;SDS011;23223;51.006;7.610;2023-10-08T05:01:59;11.25;;;4.63;;
37339;SDS011;23223;51.006;7.610;2023-10-08T05:04:38;10.23;;;4.13;;
37339;SDS011;23223;51.006;7.610;2023-10-08T05:07:22;7.40;;;4.53;;
37339;SDS011;23223;51.006;7.610;2023-10-08T05:09:51;6.18;;;3.80;;
37339;SDS011;23223;51.006;7.610;2023-10-08T05:12:36;7.50;;;3.30;;
37339;SDS011;23223;51.006;7.610;2023-10-08T05:15:15;5.97;;;3.15;;
37339;SDS011;23223;51.006;7.610;2023-10-08T05:17:45;7.47;;;3.08;;
37339;SDS011;23223;51.006;7.610;2023-10-08T05:20:15;8.27;;;3.85;;
37339;SDS011;23223;51.006;7.610;2023-10-08T05:22:55;10.93;;;5.18;;
37339;SDS011;23223;51.006;7.610;2023-10-08T05:25:31;13.57;;;5.00;;
37339;SDS011;23223;51.006;7.610;2023-10-08T05:28:22;10.57;;;4.70;;
37339;SDS011;23223;51.006;7.610;2023-10-08T05:30:51;11.50;;;4.13;;
37339;SDS011;23223;51.006;7.610;2023-10-08T05:33:36;15.93;;;4.65;;
37339;SDS011;23223;51.006;7.610;2023-10-08T05:36:23;12.60;;;4.75;;
37339;SDS011;23223;51.006;7.610;2023-10-08T05:39:15;9.20;;;3.42;;
37339;SDS011;23223;51.006;7.610;2023-10-08T05:41:54;10.57;;;3.83;;
37339;SDS011;23223;51.006;7.610;2023-10-08T05:44:38;6.10;;;3.85;;
37339;SDS011;23223;51.006;7.610;2023-10-08T05:47:10;6.65;;;4.70;;
37339;SDS011;23223;51.006;7.610;2023-10-08T05:50:00;8.40;;;5.03;;
37339;SDS011;23223;51.006;7.610;2023-10-08T05:52:45;11.10;;;4.65;;
37339;SDS011;23223;51.006;7.610;2023-10-08T05:55:21;9.45;;;4.82;;
37339;SDS011;23223;51.006;7.610;2023-10-08T05:57:59;10.93;;;4.85;;
37339;SDS011;23223;51.006;7.610;2023-10-08T06:00:50;14.00;;;5.13;;
37339;SDS011;23223;51.006;7.610;2023-10-08T06:03:19;8.73;;;4.40;;
37339;SDS011;23223;51.006;7.610;2023-10-08T06:06:08;11.25;;;4.50;;
37339;SDS011;23223;51.006;7.610;2023-10-08T06:08:39;9.43;;;4.40;;
37339;SDS011;23223;51.006;7.610;2023-10-08T06:11:35;10.93;;;4.63;;
37339;SDS011;23223;51.006;7.610;2023-10-08T06:14:08;10.10;;;4.80;;
37339;SDS011;23223;51.006;7.610;2023-10-08T06:16:53;6.78;;;4.13;;
37339;SDS011;23223;51.006;7.610;2023-10-08T06:19:38;10.85;;;4.63;;
37339;SDS011;23223;51.006;7.610;2023-10-08T06:22:04;8.70;;;4.50;;
37339;SDS011;23223;51.006;7.610;2023-10-08T06:24:30;10.40;;;4.85;;
37339;SDS011;23223;51.006;7.610;2023-10-08T06:26:58;8.05;;;4.65;;
37339;SDS011;23223;51.006;7.610;2023-10-08T06:29:29;9.10;;;3.70;;
37339;SDS011;23223;51.006;7.610;2023-10-08T06:31:56;9.93;;;4.60;;
37339;SDS011;23223;51.006;7.610;2023-10-08T06:34:27;11.57;;;5.35;;
37339;SDS011;23223;51.006;7.610;2023-10-08T06:36:54;9.30;;;4.40;;
37339;SDS011;23223;51.006;7.610;2023-10-08T06:39:21;8.88;;;5.57;;
37339;SDS011;23223;51.006;7.610;2023-10-08T06:41:53;7.95;;;4.35;;
37339;SDS011;23223;51.006;7.610;2023-10-08T06:44:22;10.82;;;4.75;;
37339;SDS011;23223;51.006;7.610;2023-10-08T06:46:47;7.75;;;4.25;;
37339;SDS011;23223;51.006;7.610;2023-10-08T06:49:13;11.48;;;4.57;;
37339;SDS011;23223;51.006;7.610;2023-10-08T06:51:40;8.60;;;4.60;;
37339;SDS011;23223;51.006;7.610;2023-10-08T06:54:08;10.13;;;5.38;;
37339;SDS011;23223;51.006;7.610;2023-10-08T06:56:35;9.45;;;5.00;;
37339;SDS011;23223;51.006;7.610;2023-10-08T06:59:01;11.40;;;4.97;;
37339;SDS011;23223;51.006;7.610;2023-10-08T07:01:28;16.20;;;6.10;;
37339;SDS011;23223;51.006;7.610;2023-10-08T07:04:04;7.07;;;4.60;;
37339;SDS011;23223;51.006;7.610;2023-10-08T07:06:37;9.45;;;5.22;;
37339;SDS011;23223;51.006;7.610;2023-10-08T07:09:04;8.73;;;4.78;;
37339;SDS011;23223;51.006;7.610;2023-10-08T07:11:34;8.65;;;4.10;;
37339;SDS011;23223;51.006;7.610;2023-10-08T07:14:03;9.95;;;5.32;;
37339;SDS011;23223;51.006;7.610;2023-10-08T07:16:30;10.32;;;5.45;;
37339;SDS011;23223;51.006;7.610;2023-10-08T07:18:56;9.68;;;4.25;;
37339;SDS011;23223;51.006;7.610;2023-10-08T07:21:42;13.32;;;5.18;;
37339;SDS011;23223;51.006;7.610;2023-10-08T07:24:14;11.10;;;4.57;;
37339;SDS011;23223;51.006;7.610;2023-10-08T07:26:42;11.18;;;4.97;;
37339;SDS011;23223;51.006;7.610;2023-10-08T07:29:12;8.85;;;4.47;;
37339;SDS011;23223;51.006;7.610;2023-10-08T07:31:41;11.95;;;4.82;;
37339;SDS011;23223;51.006;7.610;2023-10-08T07:34:13;9.65;;;5.15;;
37339;SDS011;23223;51.006;7.610;2023-10-08T07:36:42;5.75;;;4.05;;
37339;SDS011;23223;51.006;7.610;2023-10-08T07:39:10;18.73;;;5.93;;
37339;SDS011;23223;51.006;7.610;2023-10-08T07:41:50;12.70;;;6.07;;
37339;SDS011;23223;51.006;7.610;2023-10-08T07:44:20;12.80;;;5.22;;
37339;SDS011;23223;51.006;7.610;2023-10-08T07:46:48;13.88;;;4.93;;
37339;SDS011;23223;51.006;7.610;2023-10-08T07:49:21;12.02;;;4.93;;
37339;SDS011;23223;51.006;7.610;2023-10-08T07:51:50;13.48;;;5.32;;
37339;SDS011;23223;51.006;7.610;2023-10-08T07:54:20;9.98;;;4.75;;
37339;SDS011;23223;51.006;7.610;2023-10-08T07:56:47;17.17;;;6.03;;
37339;SDS011;23223;51.006;7.610;2023-10-08T07:59:14;8.75;;;4.40;;
37339;SDS011;23223;51.006;7.610;2023-10-08T08:01:41;9.73;;;5.35;;
37339;SDS011;23223;51.006;7.610;2023-10-08T08:04:10;15.82;;;6.00;;
37339;SDS011;23223;51.006;7.610;2023-10-08T08:06:46;14.88;;;5.32;;
37339;SDS011;23223;51.006;7.610;2023-10-08T08:09:14;13.20;;;5.28;;
37339;SDS011;23223;51.006;7.610;2023-10-08T08:11:43;20.15;;;6.32;;
37339;SDS011;23223;51.006;7.610;2023-10-08T08:14:11;20.02;;;6.43;;
37339;SDS011;23223;51.006;7.610;2023-10-08T08:16:41;20.00;;;7.20;;
37339;SDS011;23223;51.006;7.610;2023-10-08T08:19:13;16.23;;;6.93;;
37339;SDS011;23223;51.006;7.610;2023-10-08T08:21:41;10.60;;;5.40;;
37339;SDS011;23223;51.006;7.610;2023-10-08T08:24:10;21.95;;;8.02;;
37339;SDS011;23223;51.006;7.610;2023-10-08T08:26:53;21.75;;;7.55;;
37339;SDS011;23223;51.006;7.610;2023-10-08T08:29:36;29.40;;;7.47;;
37339;SDS011;23223;51.006;7.610;2023-10-08T08:32:12;16.80;;;5.70;;
37339;SDS011;23223;51.006;7.610;2023-10-08T08:34:44;18.45;;;6.10;;
37339;SDS011;23223;51.006;7.610;2023-10-08T08:37:13;15.82;;;6.63;;
37339;SDS011;23223;51.006;7.610;2023-10-08T08:39:39;24.13;;;9.30;;
37339;SDS011;23223;51.006;7.610;2023-10-08T08:42:06;22.98;;;8.07;;
37339;SDS011;23223;51.006;7.610;2023-10-08T08:44:34;19.95;;;6.90;;
37339;SDS011;23223;51.006;7.610;2023-10-08T08:47:04;24.95;;;8.90;;
37339;SDS011;23223;51.006;7.610;2023-10-08T08:49:34;28.17;;;10.18;;
37339;SDS011;23223;51.006;7.610;2023-10-08T08:52:02;22.15;;;7.93;;
37339;SDS011;23223;51.006;7.610;2023-10-08T08:54:29;31.40;;;8.80;;
37339;SDS011;23223;51.006;7.610;2023-10-08T08:56:56;21.35;;;7.05;;
37339;SDS011;23223;51.006;7.610;2023-10-08T08:59:24;34.35;;;9.50;;
37339;SDS011;23223;51.006;7.610;2023-10-08T09:01:51;19.75;;;7.18;;
37339;SDS011;23223;51.006;7.610;2023-10-08T09:04:27;19.15;;;7.82;;
37339;SDS011;23223;51.006;7.610;2023-10-08T09:06:55;34.00;;;9.60;;
37339;SDS011;23223;51.006;7.610;2023-10-08T09:09:20;23.90;;;8.52;;
37339;SDS011;23223;51.006;7.610;2023-10-08T09:11:51;25.35;;;8.05;;
37339;SDS011;23223;51.006;7.610;2023-10-08T09:14:20;20.10;;;7.28;;
37339;SDS011;23223;51.006;7.610;2023-10-08T09:16:47;19.58;;;7.85;;
37339;SDS011;23223;51.006;7.610;2023-10-08T09:19:17;30.75;;;9.93;;
37339;SDS011;23223;51.006;7.610;2023-10-08T09:22:05;27.63;;;10.38;;
37339;SDS011;23223;51.006;7.610;2023-10-08T09:24:37;21.48;;;9.07;;
37339;SDS011;23223;51.006;7.610;2023-10-08T09:27:08;22.52;;;9.15;;
37339;SDS011;23223;51.006;7.610;2023-10-08T09:29:39;32.15;;;9.48;;
37339;SDS011;23223;51.006;7.610;2023-10-08T09:32:08;33.78;;;10.95;;
37339;SDS011;23223;51.006;7.610;2023-10-08T09:34:35;23.05;;;9.25;;
37339;SDS011;23223;51.006;7.610;2023-10-08T09:37:01;25.58;;;7.80;;
37339;SDS011;23223;51.006;7.610;2023-10-08T09:39:28;23.23;;;9.20;;
37339;SDS011;23223;51.006;7.610;2023-10-08T09:41:59;29.15;;;11.35;;
37339;SDS011;23223;51.006;7.610;2023-10-08T09:44:28;20.55;;;8.05;;
37339;SDS011;23223;51.006;7.610;2023-10-08T09:49:24;18.65;;;7.55;;
37339;SDS011;23223;51.006;7.610;2023-10-08T09:51:57;30.50;;;10.48;;
37339;SDS011;23223;51.006;7.610;2023-10-08T09:54:31;33.63;;;12.75;;
37339;SDS011;23223;51.006;7.610;2023-10-08T09:57:19;32.67;;;12.57;;
37339;SDS011;23223;51.006;7.610;2023-10-08T09:59:46;30.45;;;11.38;;
37339;SDS011;23223;51.006;7.610;2023-10-08T10:02:14;29.15;;;11.30;;
37339;SDS011;23223;51.006;7.610;2023-10-08T10:04:43;28.13;;;11.13;;
37339;SDS011;23223;51.006;7.610;2023-10-08T10:07:10;23.77;;;10.30;;
37339;SDS011;23223;51.006;7.610;2023-10-08T10:09:44;31.95;;;11.45;;
37339;SDS011;23223;51.006;7.610;2023-10-08T10:12:17;28.98;;;12.93;;
37339;SDS011;23223;51.006;7.610;2023-10-08T10:14:50;28.30;;;11.38;;
37339;SDS011;23223;51.006;7.610;2023-10-08T10:17:21;22.90;;;9.00;;
37339;SDS011;23223;51.006;7.610;2023-10-08T10:19:54;30.23;;;13.60;;
37339;SDS011;23223;51.006;7.610;2023-10-08T10:22:28;44.20;;;15.18;;
37339;SDS011;23223;51.006;7.610;2023-10-08T10:24:58;37.33;;;13.65;;
37339;SDS011;23223;51.006;7.610;2023-10-08T10:27:29;35.97;;;13.40;;
37339;SDS011;23223;51.006;7.610;2023-10-08T10:30:02;33.15;;;11.55;;
37339;SDS011;23223;51.006;7.610;2023-10-08T10:32:35;38.45;;;14.57;;
37339;SDS011;23223;51.006;7.610;2023-10-08T10:35:01;43.80;;;15.60;;
37339;SDS011;23223;51.006;7.610;2023-10-08T10:37:31;37.22;;;12.88;;
37339;SDS011;23223;51.006;7.610;2023-10-08T10:40:07;41.20;;;16.45;;
37339;SDS011;23223;51.006;7.610;2023-10-08T10:42:37;44.25;;;16.38;;
37339;SDS011;23223;51.006;7.610;2023-10-08T10:45:16;35.45;;;14.38;;
37339;SDS011;23223;51.006;7.610;2023-10-08T10:48:04;40.50;;;15.52;;
37339;SDS011;23223;51.006;7.610;2023-10-08T10:50:47;42.25;;;15.75;;
37339;SDS011;23223;51.006;7.610;2023-10-08T10:53:33;37.90;;;14.77;;
37339;SDS011;23223;51.006;7.610;2023-10-08T10:56:10;39.88;;;16.00;;
37339;SDS011;23223;51.006;7.610;2023-10-08T10:58:58;38.58;;;16.60;;
37339;SDS011;23223;51.006;7.610;2023-10-08T11:01:28;43.70;;;14.57;;
37339;SDS011;23223;51.006;7.610;2023-10-08T11:04:09;38.38;;;15.75;;
37339;SDS011;23223;51.006;7.610;2023-10-08T11:06:41;45.13;;;16.98;;
37339;SDS011;23223;51.006;7.610;2023-10-08T11:09:10;42.38;;;17.15;;
37339;SDS011;23223;51.006;7.610;2023-10-08T11:11:42;38.05;;;15.27;;
37339;SDS011;23223;51.006;7.610;2023-10-08T11:14:16;46.05;;;18.08;;
37339;SDS011;23223;51.006;7.610;2023-10-08T11:16:44;31.92;;;12.77;;
37339;SDS011;23223;51.006;7.610;2023-10-08T11:19:10;30.40;;;12.95;;
37339;SDS011;23223;51.006;7.610;2023-10-08T11:21:52;36.40;;;15.13;;
37339;SDS011;23223;51.006;7.610;2023-10-08T11:24:27;34.65;;;14.65;;
37339;SDS011;23223;51.006;7.610;2023-10-08T11:26:58;33.10;;;13.48;;
37339;SDS011;23223;51.006;7.610;2023-10-08T11:29:53;39.47;;;15.23;;
37339;SDS011;23223;51.006;7.610;2023-10-08T11:32:23;33.80;;;14.82;;
37339;SDS011;23223;51.006;7.610;2023-10-08T11:34:57;31.95;;;13.32;;
37339;SDS011;23223;51.006;7.610;2023-10-08T11:37:44;29.77;;;11.95;;
37339;SDS011;23223;51.006;7.610;2023-10-08T11:40:22;34.53;;;13.52;;
37339;SDS011;23223;51.006;7.610;2023-10-08T11:42:56;41.97;;;13.93;;
37339;SDS011;23223;51.006;7.610;2023-10-08T11:45:26;28.98;;;12.77;;
37339;SDS011;23223;51.006;7.610;2023-10-08T11:47:53;32.53;;;13.57;;
37339;SDS011;23223;51.006;7.610;2023-10-08T11:50:26;30.55;;;13.45;;
37339;SDS011;23223;51.006;7.610;2023-10-08T11:53:03;24.48;;;10.63;;
37339;SDS011;23223;51.006;7.610;2023-10-08T11:55:31;24.55;;;9.88;;
37339;SDS011;23223;51.006;7.610;2023-10-08T11:58:02;30.67;;;11.15;;
37339;SDS011;23223;51.006;7.610;2023-10-08T12:00:38;24.05;;;10.18;;
37339;SDS011;23223;51.006;7.610;2023-10-08T12:03:14;24.15;;;9.38;;
37339;SDS011;23223;51.006;7.610;2023-10-08T12:05:44;25.17;;;10.15;;
37339;SDS011;23223;51.006;7.610;2023-10-08T12:08:14;28.45;;;11.85;;
37339;SDS011;23223;51.006;7.610;2023-10-08T12:10:41;32.75;;;12.65;;
37339;SDS011;23223;51.006;7.610;2023-10-08T12:13:11;25.45;;;10.98;;
37339;SDS011;23223;51.006;7.610;2023-10-08T12:15:37;30.35;;;11.52;;
37339;SDS011;23223;51.006;7.610;2023-10-08T12:18:09;24.92;;;10.60;;
37339;SDS011;23223;51.006;7.610;2023-10-08T12:20:49;26.05;;;11.20;;
37339;SDS011;23223;51.006;7.610;2023-10-08T12:23:15;30.35;;;12.50;;
37339;SDS011;23223;51.006;7.610;2023-10-08T12:25:56;22.15;;;9.07;;
37339;SDS011;23223;51.006;7.610;2023-10-08T12:28:22;32.53;;;12.82;;
37339;SDS011;23223;51.006;7.610;2023-10-08T12:30:49;21.40;;;10.05;;
37339;SDS011;23223;51.006;7.610;2023-10-08T12:33:20;25.30;;;12.02;;
37339;SDS011;23223;51.006;7.610;2023-10-08T12:35:49;31.10;;;10.48;;
37339;SDS011;23223;51.006;7.610;2023-10-08T12:38:18;27.38;;;11.25;;
37339;SDS011;23223;51.006;7.610;2023-10-08T12:40:47;31.70;;;10.98;;
37339;SDS011;23223;51.006;7.610;2023-10-08T12:43:20;26.50;;;10.88;;
37339;SDS011;23223;51.006;7.610;2023-10-08T12:45:47;22.48;;;10.82;;
37339;SDS011;23223;51.006;7.610;2023-10-08T12:48:22;30.25;;;11.60;;
37339;SDS011;23223;51.006;7.610;2023-10-08T12:50:51;24.15;;;11.55;;
37339;SDS011;23223;51.006;7.610;2023-10-08T12:53:26;27.27;;;11.35;;
37339;SDS011;23223;51.006;7.610;2023-10-08T12:55:58;28.48;;;12.02;;
37339;SDS011;23223;51.006;7.610;2023-10-08T12:58:30;25.92;;;10.00;;
37339;SDS011;23223;51.006;7.610;2023-10-08T13:00:57;27.00;;;10.77;;
37339;SDS011;23223;51.006;7.610;2023-10-08T13:03:23;19.48;;;8.27;;
37339;SDS011;23223;51.006;7.610;2023-10-08T13:05:50;23.92;;;9.50;;
37339;SDS011;23223;51.006;7.610;2023-10-08T13:08:19;22.63;;;11.05;;
37339;SDS011;23223;51.006;7.610;2023-10-08T13:10:46;24.52;;;9.85;;
37339;SDS011;23223;51.006;7.610;2023-10-08T13:13:12;24.52;;;9.63;;
37339;SDS011;23223;51.006;7.610;2023-10-08T13:15:39;23.73;;;9.90;;
37339;SDS011;23223;51.006;7.610;2023-10-08T13:18:06;23.95;;;9.70;;
37339;SDS011;23223;51.006;7.610;2023-10-08T13:20:32;19.92;;;9.50;;
37339;SDS011;23223;51.006;7.610;2023-10-08T13:23:02;21.60;;;10.15;;
37339;SDS011;23223;51.006;7.610;2023-10-08T13:25:29;30.30;;;10.63;;
37339;SDS011;23223;51.006;7.610;2023-10-08T13:27:58;17.17;;;8.75;;
37339;SDS011;23223;51.006;7.610;2023-10-08T13:30:25;28.35;;;10.63;;
37339;SDS011;23223;51.006;7.610;2023-10-08T13:32:52;28.55;;;9.27;;
37339;SDS011;23223;51.006;7.610;2023-10-08T13:35:18;22.33;;;10.02;;
37339;SDS011;23223;51.006;7.610;2023-10-08T13:37:44;27.25;;;11.23;;
37339;SDS011;23223;51.006;7.610;2023-10-08T13:40:13;24.40;;;10.27;;
37339;SDS011;23223;51.006;7.610;2023-10-08T13:42:41;15.32;;;8.25;;
37339;SDS011;23223;51.006;7.610;2023-10-08T13:45:10;22.90;;;9.50;;
37339;SDS011;23223;51.006;7.610;2023-10-08T13:47:41;29.23;;;10.35;;
37339;SDS011;23223;51.006;7.610;2023-10-08T13:50:07;20.52;;;9.32;;
37339;SDS011;23223;51.006;7.610;2023-10-08T13:52:36;22.75;;;10.00;;
37339;SDS011;23223;51.006;7.610;2023-10-08T13:55:05;23.58;;;10.25;;
37339;SDS011;23223;51.006;7.610;2023-10-08T13:57:32;27.33;;;9.98;;
37339;SDS011;23223;51.006;7.610;2023-10-08T13:59:58;35.33;;;10.82;;
37339;SDS011;23223;51.006;7.610;2023-10-08T14:02:25;24.05;;;8.68;;
37339;SDS011;23223;51.006;7.610;2023-10-08T14:04:51;18.13;;;8.90;;
37339;SDS011;23223;51.006;7.610;2023-10-08T14:07:18;27.83;;;11.25;;
37339;SDS011;23223;51.006;7.610;2023-10-08T14:09:44;26.00;;;9.32;;
37339;SDS011;23223;51.006;7.610;2023-10-08T14:12:10;24.73;;;9.02;;
37339;SDS011;23223;51.006;7.610;2023-10-08T14:14:38;21.58;;;8.85;;
37339;SDS011;23223;51.006;7.610;2023-10-08T14:17:09;26.95;;;9.80;;
37339;SDS011;23223;51.006;7.610;2023-10-08T14:19:39;31.67;;;10.43;;
37339;SDS011;23223;51.006;7.610;2023-10-08T14:22:17;13.13;;;7.53;;
37339;SDS011;23223;51.006;7.610;2023-10-08T14:24:46;17.00;;;7.18;;
37339;SDS011;23223;51.006;7.610;2023-10-08T14:27:23;16.00;;;7.45;;
37339;SDS011;23223;51.006;7.610;2023-10-08T14:29:56;29.45;;;10.25;;
37339;SDS011;23223;51.006;7.610;2023-10-08T14:32:25;26.52;;;10.25;;
37339;SDS011;23223;51.006;7.610;2023-10-08T14:34:57;22.27;;;9.00;;
37339;SDS011;23223;51.006;7.610;2023-10-08T14:37:22;24.27;;;9.15;;
37339;SDS011;23223;51.006;7.610;2023-10-08T14:40:07;16.85;;;8.18;;
37339;SDS011;23223;51.006;7.610;2023-10-08T14:42:51;25.13;;;9.38;;
37339;SDS011;23223;51.006;7.610;2023-10-08T14:45:30;13.10;;;7.00;;
37339;SDS011;23223;51.006;7.610;2023-10-08T14:48:00;21.20;;;9.15;;
37339;SDS011;23223;51.006;7.610;2023-10-08T14:50:27;28.55;;;11.20;;
37339;SDS011;23223;51.006;7.610;2023-10-08T14:52:53;30.15;;;9.40;;
37339;SDS011;23223;51.006;7.610;2023-10-08T14:55:24;18.85;;;8.95;;
37339;SDS011;23223;51.006;7.610;2023-10-08T14:57:50;25.65;;;10.43;;
37339;SDS011;23223;51.006;7.610;2023-10-08T15:00:19;19.08;;;9.45;;
37339;SDS011;23223;51.006;7.610;2023-10-08T15:02:50;26.58;;;10.82;;
37339;SDS011;23223;51.006;7.610;2023-10-08T15:05:20;20.65;;;9.65;;